Terminal Aerodrome Forecast
Issued by NWS Brownsville, TX

Home | Current Version | Previous Version | Text Only | Print | Product List | Glossary On
Versions: 1 2 3 4 5 6 7 8 9 10 11 12 13 14 15 16 17
000
FTUS44 KBRO 040528
TAFMFE
TAF
KMFE 040528Z 0406/0506 13007KT P6SM SKC
     FM041700 14013G19KT P6SM SCT050
     FM050300 14011KT P6SM SKC=

USA.gov is the U.S. government's official web portal to all federal, state and local government web resources and services.